Time;durP1;ratioP1;P1;durP2;ratioP2;P2;SDS_P1;SDS_P2;PMS_P1;PMS_P2;Temp;Humidity;BMP_temperature;BMP_pressure;BME280_temperature;BME280_humidity;BME280_pressure;Samples;Min_cycle;Max_cycle;Signal;HPM_P1;HPM_P2
2021/12/21 00:02:16;;;;;;;8.52;3.10;;;;;;;;;;5031682;28;20404;-70
2021/12/21 00:04:42;;;;;;;4.43;3.20;;;;;;;;;;5030686;28;20037;-70
2021/12/21 00:07:08;;;;;;;5.72;3.03;;;;;;;;;;5032347;28;20033;-70
2021/12/21 00:09:34;;;;;;;4.93;2.95;;;;;;;;;;5032220;28;20036;-70
2021/12/21 00:12:01;;;;;;;4.68;2.95;;;;;;;;;;5030365;28;20060;-70
2021/12/21 00:14:40;;;;;;;6.30;2.80;;;;;;;;;;5029042;28;20088;-71
2021/12/21 00:20:04;;;;;;;6.30;2.88;;;;;;;;;;5031228;28;20073;-70
2021/12/21 00:23:12;;;;;;;6.90;3.13;;;;;;;;;;5030463;28;20099;-70
2021/12/21 00:25:23;;;;;;;7.55;3.20;;;;;;;;;;5030437;28;20386;-71
2021/12/21 00:27:52;;;;;;;5.40;2.75;;;;;;;;;;5028632;28;20065;-70
2021/12/21 00:30:18;;;;;;;7.13;2.78;;;;;;;;;;5029273;28;20051;-70
2021/12/21 00:32:45;;;;;;;5.05;2.90;;;;;;;;;;5028043;28;20040;-71
2021/12/21 00:35:11;;;;;;;7.10;3.00;;;;;;;;;;5012079;28;20399;-70
2021/12/21 00:37:41;;;;;;;5.45;3.53;;;;;;;;;;5031108;28;20056;-71
2021/12/21 00:40:07;;;;;;;6.35;2.88;;;;;;;;;;5030089;28;20453;-70
2021/12/21 00:42:33;;;;;;;5.60;3.25;;;;;;;;;;5030543;28;20120;-71
2021/12/21 00:44:59;;;;;;;5.15;3.35;;;;;;;;;;5031186;28;20124;-71
2021/12/21 00:47:25;;;;;;;7.53;3.30;;;;;;;;;;5028128;28;20192;-71
2021/12/21 00:49:58;;;;;;;5.30;3.58;;;;;;;;;;5031621;28;20033;-70
2021/12/21 00:52:25;;;;;;;5.70;2.67;;;;;;;;;;5030986;28;20112;-71
2021/12/21 00:54:51;;;;;;;5.90;3.40;;;;;;;;;;5029257;28;20667;-70
2021/12/21 00:57:17;;;;;;;7.78;3.17;;;;;;;;;;5031880;28;20042;-71
2021/12/21 00:59:43;;;;;;;6.30;3.10;;;;;;;;;;5031388;28;20120;-70
2021/12/21 01:02:09;;;;;;;8.68;3.78;;;;;;;;;;5032167;28;20068;-70
2021/12/21 01:04:41;;;;;;;5.28;3.47;;;;;;;;;;5032028;28;20080;-71
2021/12/21 01:10:03;;;;;;;7.93;3.30;;;;;;;;;;5030258;28;20426;-70
2021/12/21 01:12:45;;;;;;;8.82;3.92;;;;;;;;;;5030718;28;20060;-70
2021/12/21 01:15:22;;;;;;;7.45;3.78;;;;;;;;;;5029726;28;20487;-71
2021/12/21 01:17:58;;;;;;;8.85;4.00;;;;;;;;;;5027480;28;20116;-70
2021/12/21 01:20:33;;;;;;;7.20;3.90;;;;;;;;;;5012926;28;20140;-71
2021/12/21 01:25:39;;;;;;;7.15;4.50;;;;;;;;;;5031838;28;20406;-70
2021/12/21 01:28:17;;;;;;;6.90;4.10;;;;;;;;;;5009808;28;20525;-71
2021/12/21 01:30:59;;;;;;;7.50;4.18;;;;;;;;;;5028979;28;20075;-71
2021/12/21 01:33:45;;;;;;;5.30;3.92;;;;;;;;;;5012496;28;20045;-71
2021/12/21 01:36:24;;;;;;;9.50;4.15;;;;;;;;;;5029445;28;20040;-71
2021/12/21 01:38:59;;;;;;;9.48;4.35;;;;;;;;;;5028498;28;20120;-70
2021/12/21 01:41:39;;;;;;;8.30;4.40;;;;;;;;;;5028113;28;20103;-71
2021/12/21 01:44:21;;;;;;;9.48;4.95;;;;;;;;;;5029046;28;20120;-71
2021/12/21 01:49:40;;;;;;;9.45;5.10;;;;;;;;;;5023686;28;20037;-71
2021/12/21 01:52:07;;;;;;;8.13;5.50;;;;;;;;;;5026168;28;20117;-71
2021/12/21 01:54:33;;;;;;;9.45;5.82;;;;;;;;;;5030281;28;20045;-71
2021/12/21 01:56:59;;;;;;;11.10;5.25;;;;;;;;;;5028727;28;20051;-71
2021/12/21 01:59:27;;;;;;;10.10;6.20;;;;;;;;;;5028093;28;20061;-71
2021/12/21 02:01:53;;;;;;;9.90;6.35;;;;;;;;;;5026788;28;20042;-71
2021/12/21 02:04:19;;;;;;;11.73;7.10;;;;;;;;;;5028688;28;20228;-71
2021/12/21 02:06:46;;;;;;;13.32;7.28;;;;;;;;;;5028536;28;20191;-71
2021/12/21 02:09:12;;;;;;;9.45;6.88;;;;;;;;;;5028834;28;20037;-71
2021/12/21 02:11:38;;;;;;;13.20;7.60;;;;;;;;;;5029303;28;20368;-71
2021/12/21 02:14:08;;;;;;;12.10;7.57;;;;;;;;;;5029698;28;20119;-71
2021/12/21 02:19:30;;;;;;;12.00;8.18;;;;;;;;;;4995207;28;20128;-71
2021/12/21 02:22:06;;;;;;;11.15;8.13;;;;;;;;;;5012032;28;20044;-71
2021/12/21 02:24:41;;;;;;;14.45;8.63;;;;;;;;;;5010737;28;20091;-71
2021/12/21 02:27:25;;;;;;;13.00;8.50;;;;;;;;;;5029453;28;20037;-71
2021/12/21 02:29:51;;;;;;;13.32;8.60;;;;;;;;;;5020227;28;20506;-71
2021/12/21 02:32:17;;;;;;;15.32;9.70;;;;;;;;;;5031202;28;20041;-71
2021/12/21 02:34:44;;;;;;;15.65;9.82;;;;;;;;;;5028899;28;20059;-71
2021/12/21 02:37:11;;;;;;;15.43;9.27;;;;;;;;;;5031536;28;20041;-70
2021/12/21 02:39:37;;;;;;;16.27;8.27;;;;;;;;;;5029933;28;20037;-71
2021/12/21 02:42:04;;;;;;;14.88;9.02;;;;;;;;;;5025479;28;20045;-71
2021/12/21 02:44:30;;;;;;;13.00;8.88;;;;;;;;;;5026017;28;20103;-71
2021/12/21 02:46:56;;;;;;;12.45;8.68;;;;;;;;;;5025350;28;20029;-71
2021/12/21 02:49:22;;;;;;;13.50;9.18;;;;;;;;;;5018775;28;20046;-71
2021/12/21 02:51:48;;;;;;;13.75;8.40;;;;;;;;;;5028637;28;20034;-71
2021/12/21 02:54:15;;;;;;;12.07;7.97;;;;;;;;;;5027734;28;20041;-71
2021/12/21 02:56:42;;;;;;;14.60;8.65;;;;;;;;;;5028269;28;20034;-71
2021/12/21 02:59:08;;;;;;;14.88;8.60;;;;;;;;;;5028925;28;20037;-71
2021/12/21 03:01:35;;;;;;;16.00;8.43;;;;;;;;;;5026307;28;20039;-71
2021/12/21 03:04:01;;;;;;;13.30;8.52;;;;;;;;;;5023096;28;20052;-71
2021/12/21 03:12:09;;;;;;;15.05;9.13;;;;;;;;;;5023847;28;20045;-70
2021/12/21 03:14:35;;;;;;;16.52;9.45;;;;;;;;;;5032458;28;20471;-71
2021/12/21 03:17:01;;;;;;;12.65;8.85;;;;;;;;;;5032679;28;20088;-70
2021/12/21 03:19:27;;;;;;;12.68;8.35;;;;;;;;;;5031082;28;20437;-71
2021/12/21 03:21:53;;;;;;;12.30;8.18;;;;;;;;;;5032155;28;20068;-70
2021/12/21 03:24:19;;;;;;;12.82;8.90;;;;;;;;;;5013645;28;20096;-71
2021/12/21 03:26:45;;;;;;;12.32;7.68;;;;;;;;;;5013507;28;20140;-70
2021/12/21 03:29:11;;;;;;;14.02;8.32;;;;;;;;;;5030896;28;20498;-70
2021/12/21 03:31:37;;;;;;;12.50;7.85;;;;;;;;;;5030661;28;20184;-70
2021/12/21 03:34:03;;;;;;;10.55;7.45;;;;;;;;;;5026431;28;20088;-70
2021/12/21 03:36:29;;;;;;;13.10;8.38;;;;;;;;;;5031747;28;20379;-70
2021/12/21 03:39:05;;;;;;;15.20;8.90;;;;;;;;;;5031593;28;20048;-71
2021/12/21 03:41:31;;;;;;;19.33;10.35;;;;;;;;;;5029902;28;20034;-70
2021/12/21 03:44:00;;;;;;;14.57;9.55;;;;;;;;;;5028919;28;20372;-70
2021/12/21 03:46:27;;;;;;;17.05;10.50;;;;;;;;;;5029444;28;20044;-70
2021/12/21 03:48:53;;;;;;;16.10;10.00;;;;;;;;;;5026550;28;20120;-70
2021/12/21 03:51:20;;;;;;;15.88;9.50;;;;;;;;;;5030321;28;20432;-70
2021/12/21 03:53:46;;;;;;;15.60;9.68;;;;;;;;;;5029969;28;20045;-71
2021/12/21 03:58:57;;;;;;;17.98;10.88;;;;;;;;;;5031217;28;20056;-71
2021/12/21 04:01:23;;;;;;;17.10;10.27;;;;;;;;;;5013906;28;20051;-70
2021/12/21 04:03:49;;;;;;;16.52;9.73;;;;;;;;;;5050985;22;20544;-70
2021/12/21 04:06:15;;;;;;;18.15;10.77;;;;;;;;;;5051143;28;20120;-70
2021/12/21 04:08:41;;;;;;;17.98;10.45;;;;;;;;;;5050989;28;20412;-70
2021/12/21 04:11:07;;;;;;;14.63;10.40;;;;;;;;;;5050933;28;20497;-70
2021/12/21 04:13:33;;;;;;;14.65;9.82;;;;;;;;;;5053503;28;20127;-70
2021/12/21 04:16:01;;;;;;;15.00;10.77;;;;;;;;;;5044520;28;20050;-70
2021/12/21 04:18:28;;;;;;;15.50;10.27;;;;;;;;;;5039753;28;20558;-70
2021/12/21 04:20:54;;;;;;;15.30;10.00;;;;;;;;;;5054155;28;20083;-69
2021/12/21 04:23:20;;;;;;;16.10;9.90;;;;;;;;;;5049294;28;20163;-70
2021/12/21 04:25:46;;;;;;;16.35;9.85;;;;;;;;;;5047700;28;20096;-70
2021/12/21 04:28:12;;;;;;;14.80;9.48;;;;;;;;;;5033793;28;20167;-69
2021/12/21 04:30:38;;;;;;;16.50;11.03;;;;;;;;;;5039200;28;20072;-69
2021/12/21 04:33:04;;;;;;;13.60;10.07;;;;;;;;;;5042752;28;20044;-70
2021/12/21 04:35:30;;;;;;;16.23;10.27;;;;;;;;;;5033301;28;20557;-69
2021/12/21 04:38:12;;;;;;;19.35;11.02;;;;;;;;;;5051153;28;20099;-70
2021/12/21 04:40:42;;;;;;;17.23;10.50;;;;;;;;;;5038870;28;20056;-70
2021/12/21 04:43:08;;;;;;;19.85;11.45;;;;;;;;;;5034465;28;20087;-69
2021/12/21 04:45:34;;;;;;;15.80;11.55;;;;;;;;;;5036960;28;20037;-69
2021/12/21 04:48:00;;;;;;;15.63;10.63;;;;;;;;;;5044836;28;20508;-69
2021/12/21 04:50:27;;;;;;;14.32;10.07;;;;;;;;;;5043297;28;20117;-69
2021/12/21 04:52:52;;;;;;;17.27;10.98;;;;;;;;;;5033556;28;20045;-70
2021/12/21 04:55:19;;;;;;;19.77;12.63;;;;;;;;;;5032468;28;20125;-70
2021/12/21 04:57:45;;;;;;;18.43;11.37;;;;;;;;;;5040647;28;20041;-70
2021/12/21 05:00:12;;;;;;;19.70;11.23;;;;;;;;;;5041417;28;20483;-70
2021/12/21 05:02:38;;;;;;;15.13;10.43;;;;;;;;;;5030667;28;20037;-70
2021/12/21 05:05:05;;;;;;;18.17;12.20;;;;;;;;;;5035398;28;20125;-70
2021/12/21 05:07:33;;;;;;;21.73;12.47;;;;;;;;;;5032998;28;20318;-70
2021/12/21 05:10:01;;;;;;;20.88;12.57;;;;;;;;;;5043844;28;20041;-70
2021/12/21 05:12:28;;;;;;;17.33;13.43;;;;;;;;;;5039146;28;20442;-70
2021/12/21 05:14:55;;;;;;;21.40;12.30;;;;;;;;;;5032742;28;20048;-70
2021/12/21 05:17:21;;;;;;;21.17;12.20;;;;;;;;;;5025126;28;20379;-69
2021/12/21 05:19:47;;;;;;;18.80;12.77;;;;;;;;;;5034542;28;20041;-70
2021/12/21 05:22:15;;;;;;;20.20;12.93;;;;;;;;;;5032910;28;20063;-70
2021/12/21 05:24:41;;;;;;;22.27;13.27;;;;;;;;;;5032337;28;20060;-70
2021/12/21 05:27:07;;;;;;;20.95;12.63;;;;;;;;;;5036768;28;20457;-70
2021/12/21 05:29:33;;;;;;;19.00;12.37;;;;;;;;;;5043329;28;20386;-70
2021/12/21 05:31:59;;;;;;;22.48;13.50;;;;;;;;;;5050754;28;20164;-70
2021/12/21 05:34:26;;;;;;;24.10;13.10;;;;;;;;;;5032489;28;20050;-69
2021/12/21 05:36:52;;;;;;;17.42;12.02;;;;;;;;;;5036340;28;20524;-70
2021/12/21 05:39:22;;;;;;;19.83;12.80;;;;;;;;;;5051101;28;20152;-70
2021/12/21 05:41:51;;;;;;;17.20;12.57;;;;;;;;;;5034488;28;20128;-69
2021/12/21 05:44:17;;;;;;;20.08;12.73;;;;;;;;;;5025250;28;20526;-69
2021/12/21 05:46:43;;;;;;;19.73;12.07;;;;;;;;;;5026426;28;20079;-70
2021/12/21 05:49:09;;;;;;;19.07;11.77;;;;;;;;;;5028679;28;20030;-70
2021/12/21 05:51:35;;;;;;;19.40;12.88;;;;;;;;;;5031092;28;20056;-70
2021/12/21 05:54:01;;;;;;;19.73;12.38;;;;;;;;;;5031483;28;20029;-70
2021/12/21 05:56:27;;;;;;;19.23;12.57;;;;;;;;;;5022921;28;20037;-70
2021/12/21 05:58:53;;;;;;;21.25;12.90;;;;;;;;;;5031283;28;20578;-70
2021/12/21 06:01:19;;;;;;;21.90;12.48;;;;;;;;;;5023624;28;20038;-70
2021/12/21 06:03:45;;;;;;;20.57;13.07;;;;;;;;;;5032007;28;20088;-70
2021/12/21 06:06:14;;;;;;;20.47;12.60;;;;;;;;;;5031335;28;20041;-70
2021/12/21 06:08:41;;;;;;;21.00;12.63;;;;;;;;;;5030173;28;20037;-70
2021/12/21 06:11:08;;;;;;;19.47;12.80;;;;;;;;;;5032238;28;20056;-70
2021/12/21 06:26:53;;;;;;;17.83;12.23;;;;;;;;;;5031718;28;20401;-70
2021/12/21 06:29:19;;;;;;;22.77;12.80;;;;;;;;;;5031994;28;20068;-70
2021/12/21 06:31:45;;;;;;;17.87;12.20;;;;;;;;;;5025447;28;20084;-70
2021/12/21 06:34:11;;;;;;;21.00;11.37;;;;;;;;;;5029997;28;20415;-70
2021/12/21 06:36:37;;;;;;;16.73;11.00;;;;;;;;;;5025097;28;20057;-70
2021/12/21 06:39:07;;;;;;;17.23;11.70;;;;;;;;;;5033492;28;20068;-70
2021/12/21 06:41:35;;;;;;;17.07;11.17;;;;;;;;;;5022074;28;20045;-70
2021/12/21 06:44:02;;;;;;;14.90;10.63;;;;;;;;;;5025105;28;20491;-70
2021/12/21 06:52:00;;;;;;;16.67;10.33;;;;;;;;;;5028282;28;20051;-70
2021/12/21 06:54:26;;;;;;;15.43;9.80;;;;;;;;;;5037336;28;20094;-70
2021/12/21 06:56:52;;;;;;;14.93;9.53;;;;;;;;;;5036112;28;20521;-70
2021/12/21 06:59:18;;;;;;;15.07;9.50;;;;;;;;;;5035213;28;20140;-70
2021/12/21 07:01:44;;;;;;;13.10;9.83;;;;;;;;;;5038245;28;20041;-71
2021/12/21 07:04:11;;;;;;;13.77;9.47;;;;;;;;;;5036642;28;20042;-70
2021/12/21 07:06:38;;;;;;;11.13;9.20;;;;;;;;;;5040992;28;20482;-70
2021/12/21 07:09:11;;;;;;;12.70;9.03;;;;;;;;;;5031109;28;20038;-70
2021/12/21 07:11:43;;;;;;;13.60;8.07;;;;;;;;;;5044156;28;20044;-70
2021/12/21 07:19:39;;;;;;;14.00;8.07;;;;;;;;;;5030114;28;20041;-70
2021/12/21 07:22:06;;;;;;;11.50;8.30;;;;;;;;;;5035884;28;20033;-71
2021/12/21 07:24:32;;;;;;;13.67;8.63;;;;;;;;;;5026683;28;20041;-70
2021/12/21 07:26:58;;;;;;;11.67;8.20;;;;;;;;;;5041130;28;20044;-70
2021/12/21 07:29:24;;;;;;;12.70;8.47;;;;;;;;;;5034370;28;20038;-70
2021/12/21 07:31:50;;;;;;;16.17;9.60;;;;;;;;;;5034350;28;20542;-71
2021/12/21 07:34:16;;;;;;;15.83;8.27;;;;;;;;;;5036193;28;20025;-70
2021/12/21 07:36:43;;;;;;;12.80;8.27;;;;;;;;;;5044476;28;20037;-71
2021/12/21 07:39:09;;;;;;;14.77;8.53;;;;;;;;;;5034179;28;20044;-71
2021/12/21 07:41:35;;;;;;;13.67;8.53;;;;;;;;;;5037188;28;20120;-71
2021/12/21 07:44:01;;;;;;;13.90;7.90;;;;;;;;;;5035372;28;20183;-70
2021/12/21 07:46:27;;;;;;;13.43;8.30;;;;;;;;;;5035527;28;20037;-71
2021/12/21 07:48:54;;;;;;;12.90;8.20;;;;;;;;;;5030403;28;20037;-71
2021/12/21 07:51:20;;;;;;;14.27;8.30;;;;;;;;;;5035847;28;20116;-70
2021/12/21 07:53:46;;;;;;;12.07;8.03;;;;;;;;;;5037309;28;20040;-71
2021/12/21 07:56:13;;;;;;;13.03;8.10;;;;;;;;;;5029739;28;20041;-71
2021/12/21 07:58:40;;;;;;;15.53;8.97;;;;;;;;;;5034752;28;20041;-70
2021/12/21 08:01:06;;;;;;;11.83;8.33;;;;;;;;;;5033282;28;20111;-71
2021/12/21 08:03:33;;;;;;;12.67;8.97;;;;;;;;;;5034378;28;20091;-70
2021/12/21 08:06:00;;;;;;;12.90;7.87;;;;;;;;;;5032677;28;20048;-70
2021/12/21 08:08:28;;;;;;;16.50;8.30;;;;;;;;;;5033363;28;20075;-72
2021/12/21 08:11:09;;;;;;;14.53;8.77;;;;;;;;;;5033597;28;20449;-70
2021/12/21 08:13:35;;;;;;;16.58;11.60;;;;;;;;;;5025795;28;20044;-71
2021/12/21 08:16:01;;;;;;;16.17;11.10;;;;;;;;;;5033827;28;20042;-70
2021/12/21 08:18:27;;;;;;;13.27;10.57;;;;;;;;;;5033988;28;20095;-70
2021/12/21 08:20:53;;;;;;;18.00;11.10;;;;;;;;;;5033718;28;20037;-70
2021/12/21 08:23:19;;;;;;;12.73;9.70;;;;;;;;;;5032698;28;20047;-70
2021/12/21 08:25:45;;;;;;;19.70;10.93;;;;;;;;;;5033082;28;20478;-70
2021/12/21 08:28:11;;;;;;;15.40;10.43;;;;;;;;;;5029146;28;20037;-71
2021/12/21 08:30:38;;;;;;;14.27;10.70;;;;;;;;;;5033427;28;20041;-70
2021/12/21 08:33:04;;;;;;;16.47;11.17;;;;;;;;;;5032996;28;20033;-70
2021/12/21 08:35:30;;;;;;;17.57;11.50;;;;;;;;;;5033449;28;20110;-70
2021/12/21 08:38:04;;;;;;;17.20;11.13;;;;;;;;;;5032288;28;20033;-72
2021/12/21 08:40:37;;;;;;;14.97;10.87;;;;;;;;;;5031661;28;20053;-71
2021/12/21 08:43:04;;;;;;;17.77;11.67;;;;;;;;;;5032052;28;20049;-71
2021/12/21 08:45:31;;;;;;;18.67;11.50;;;;;;;;;;5030820;28;20042;-72
2021/12/21 08:47:59;;;;;;;16.10;11.67;;;;;;;;;;5033135;28;20033;-72
2021/12/21 08:50:25;;;;;;;18.23;10.77;;;;;;;;;;5030178;28;20042;-72
2021/12/21 08:52:51;;;;;;;14.23;10.23;;;;;;;;;;5031468;28;20528;-71
2021/12/21 08:55:18;;;;;;;17.80;11.17;;;;;;;;;;5031562;28;20045;-71
2021/12/21 08:57:44;;;;;;;16.93;11.57;;;;;;;;;;5035798;28;20224;-69
2021/12/21 09:00:10;;;;;;;14.93;10.70;;;;;;;;;;5047552;28;20041;-69
2021/12/21 09:02:37;;;;;;;19.40;11.20;;;;;;;;;;5031391;28;20037;-69
2021/12/21 09:05:12;;;;;;;18.10;11.13;;;;;;;;;;5032103;28;20038;-69
2021/12/21 09:07:38;;;;;;;15.13;11.73;;;;;;;;;;5044283;28;20041;-69
2021/12/21 09:10:05;;;;;;;18.10;11.17;;;;;;;;;;5026000;28;20091;-69
2021/12/21 09:12:31;;;;;;;20.47;11.27;;;;;;;;;;5038736;28;20041;-69
2021/12/21 09:14:57;;;;;;;19.60;12.10;;;;;;;;;;5037285;28;20050;-70
2021/12/21 09:17:24;;;;;;;17.20;10.27;;;;;;;;;;5034106;28;20060;-69
2021/12/21 09:19:51;;;;;;;14.07;9.30;;;;;;;;;;5032599;28;20073;-68
2021/12/21 09:22:17;;;;;;;13.60;8.47;;;;;;;;;;5046221;28;20490;-69
2021/12/21 09:24:43;;;;;;;10.13;8.10;;;;;;;;;;5050568;28;20072;-69
2021/12/21 09:27:09;;;;;;;9.40;7.67;;;;;;;;;;5033246;28;20055;-69
2021/12/21 09:29:34;;;;;;;12.70;8.00;;;;;;;;;;5033063;28;20510;-69
2021/12/21 09:32:00;;;;;;;11.23;8.37;;;;;;;;;;5042029;28;20029;-69
2021/12/21 09:34:26;;;;;;;12.50;8.33;;;;;;;;;;5037470;28;20052;-69
2021/12/21 09:36:53;;;;;;;13.75;8.48;;;;;;;;;;5032721;28;20068;-68
2021/12/21 09:39:19;;;;;;;12.47;8.00;;;;;;;;;;5032591;28;20041;-69
2021/12/21 09:41:45;;;;;;;15.03;8.37;;;;;;;;;;5046240;28;20044;-67
2021/12/21 09:44:12;;;;;;;13.70;8.10;;;;;;;;;;5036086;28;20041;-69
2021/12/21 09:46:38;;;;;;;15.95;8.88;;;;;;;;;;5028951;28;20029;-69
2021/12/21 09:49:04;;;;;;;13.82;7.95;;;;;;;;;;5031758;28;20040;-68
2021/12/21 09:51:30;;;;;;;11.68;8.68;;;;;;;;;;5031550;28;20041;-68
2021/12/21 09:53:57;;;;;;;12.07;8.25;;;;;;;;;;5031099;28;20120;-69
2021/12/21 09:56:23;;;;;;;13.52;9.35;;;;;;;;;;5031502;28;20045;-68
2021/12/21 09:58:49;;;;;;;13.90;8.85;;;;;;;;;;5032490;28;20081;-68
2021/12/21 10:01:18;;;;;;;12.75;8.88;;;;;;;;;;5031869;28;20037;-68
2021/12/21 10:03:44;;;;;;;14.93;9.70;;;;;;;;;;5048120;22;20120;-66
2021/12/21 10:06:11;;;;;;;13.75;8.75;;;;;;;;;;5030569;28;20149;-66
2021/12/21 10:08:37;;;;;;;15.48;9.25;;;;;;;;;;5021176;28;20040;-66
2021/12/21 10:11:06;;;;;;;12.93;9.13;;;;;;;;;;5023776;28;20034;-66
2021/12/21 10:13:34;;;;;;;13.98;9.30;;;;;;;;;;5028952;28;20033;-66
2021/12/21 10:16:02;;;;;;;13.75;9.15;;;;;;;;;;5027024;28;20033;-66
2021/12/21 10:18:36;;;;;;;18.33;10.20;;;;;;;;;;5031079;28;20553;-66
2021/12/21 10:21:04;;;;;;;16.95;10.52;;;;;;;;;;5031028;28;20061;-66
2021/12/21 10:23:34;;;;;;;16.35;9.90;;;;;;;;;;5031675;28;20033;-66
2021/12/21 10:26:01;;;;;;;15.88;10.45;;;;;;;;;;5031329;28;20049;-66
2021/12/21 10:28:40;;;;;;;16.58;10.82;;;;;;;;;;5030981;28;20061;-66
2021/12/21 10:31:08;;;;;;;20.77;11.45;;;;;;;;;;5031398;28;20057;-66
2021/12/21 10:33:35;;;;;;;17.73;10.98;;;;;;;;;;5029390;28;20029;-66
2021/12/21 10:36:03;;;;;;;17.42;11.57;;;;;;;;;;5018938;28;20049;-65
2021/12/21 10:38:37;;;;;;;19.23;13.30;;;;;;;;;;5031695;28;20087;-65
2021/12/21 10:41:07;;;;;;;20.42;12.63;;;;;;;;;;5030671;28;20044;-67
2021/12/21 10:43:33;;;;;;;20.00;12.82;;;;;;;;;;5027997;28;20038;-67
2021/12/21 10:45:59;;;;;;;17.25;12.57;;;;;;;;;;5030688;28;20052;-66
2021/12/21 10:48:26;;;;;;;19.60;12.00;;;;;;;;;;5030722;28;20116;-66
2021/12/21 10:50:52;;;;;;;18.98;13.93;;;;;;;;;;5029767;28;20548;-65
2021/12/21 10:53:19;;;;;;;19.80;13.68;;;;;;;;;;5031489;28;20060;-66
2021/12/21 10:55:46;;;;;;;24.70;13.68;;;;;;;;;;5030642;28;20056;-66
2021/12/21 10:58:18;;;;;;;21.73;15.00;;;;;;;;;;5030886;28;20398;-66
2021/12/21 11:01:06;;;;;;;25.67;15.63;;;;;;;;;;5036873;28;20071;-67
2021/12/21 11:03:46;;;;;;;24.40;14.60;;;;;;;;;;5027050;28;20049;-66
2021/12/21 11:06:14;;;;;;;25.10;15.60;;;;;;;;;;5028928;28;20103;-66
2021/12/21 11:08:41;;;;;;;22.55;15.70;;;;;;;;;;5031446;28;20038;-66
2021/12/21 11:11:11;;;;;;;27.58;15.18;;;;;;;;;;5012905;28;20037;-65
2021/12/21 11:13:37;;;;;;;22.88;16.70;;;;;;;;;;5030330;28;20586;-66
2021/12/21 11:16:07;;;;;;;27.42;17.20;;;;;;;;;;5029408;28;20042;-66
2021/12/21 11:18:37;;;;;;;28.35;18.08;;;;;;;;;;5030678;28;20045;-66
2021/12/21 11:21:03;;;;;;;28.45;18.25;;;;;;;;;;5030787;28;20053;-67
2021/12/21 11:23:30;;;;;;;26.02;17.95;;;;;;;;;;5031480;28;20041;-67
2021/12/21 11:25:58;;;;;;;23.75;17.30;;;;;;;;;;5011386;28;20049;-67
2021/12/21 11:28:29;;;;;;;39.65;20.20;;;;;;;;;;5028511;28;20045;-66
2021/12/21 11:30:59;;;;;;;28.20;18.75;;;;;;;;;;5027988;28;20440;-66
2021/12/21 11:33:26;;;;;;;30.08;19.27;;;;;;;;;;5024131;28;20042;-66
2021/12/21 11:38:37;;;;;;;30.40;20.20;;;;;;;;;;5034005;28;20457;-66
2021/12/21 11:41:04;;;;;;;30.70;20.80;;;;;;;;;;5031412;28;20034;-66
2021/12/21 11:43:33;;;;;;;28.63;21.65;;;;;;;;;;5033653;28;20494;-66
2021/12/21 11:46:01;;;;;;;33.90;21.17;;;;;;;;;;5031050;28;20049;-66
2021/12/21 11:48:31;;;;;;;34.72;21.77;;;;;;;;;;5033175;28;20050;-65
2021/12/21 11:51:01;;;;;;;38.10;23.02;;;;;;;;;;5032820;28;20029;-65
2021/12/21 11:53:27;;;;;;;33.00;21.85;;;;;;;;;;5031883;28;20037;-65
2021/12/21 11:55:53;;;;;;;32.30;21.02;;;;;;;;;;5031918;28;20286;-66
2021/12/21 11:58:33;;;;;;;32.83;22.00;;;;;;;;;;5034162;28;20046;-65
2021/12/21 12:01:14;;;;;;;30.50;21.40;;;;;;;;;;5033505;28;20041;-66
2021/12/21 12:03:46;;;;;;;;;;;;;;;;;;5032449;28;20041;-65
2021/12/21 12:06:12;;;;;;;;;;;;;;;;;;5033648;28;19921;-66
2021/12/21 12:08:41;;;;;;;31.00;20.48;;;;;;;;;;5032912;28;19921;-66
2021/12/21 12:11:07;;;;;;;29.60;20.73;;;;;;;;;;5031150;28;20074;-66
2021/12/21 12:13:34;;;;;;;30.08;21.02;;;;;;;;;;5034077;28;20440;-66
2021/12/21 12:16:17;;;;;;;34.05;22.20;;;;;;;;;;5031962;28;20037;-66
2021/12/21 12:18:48;;;;;;;30.65;21.35;;;;;;;;;;5032235;28;20044;-66
2021/12/21 12:21:25;;;;;;;29.83;21.42;;;;;;;;;;5030630;28;20034;-67
2021/12/21 12:23:55;;;;;;;32.22;20.38;;;;;;;;;;5033032;28;20033;-66
2021/12/21 12:26:41;;;;;;;27.63;20.50;;;;;;;;;;5030122;28;20041;-66
2021/12/21 12:29:11;;;;;;;35.30;19.70;;;;;;;;;;5027592;28;20103;-66
2021/12/21 12:31:39;;;;;;;33.60;21.58;;;;;;;;;;5029011;28;20553;-66
2021/12/21 12:34:05;;;;;;;28.83;20.08;;;;;;;;;;5031106;28;20099;-67
2021/12/21 12:36:38;;;;;;;28.40;20.38;;;;;;;;;;5033343;28;20041;-67
2021/12/21 12:39:05;;;;;;;33.67;22.05;;;;;;;;;;5030816;28;20037;-66
2021/12/21 12:41:42;;;;;;;35.65;20.55;;;;;;;;;;5030987;28;20077;-66
2021/12/21 12:44:18;;;;;;;32.10;21.00;;;;;;;;;;5026879;28;20411;-65
2021/12/21 12:46:52;;;;;;;27.52;19.27;;;;;;;;;;5032446;28;20111;-65
2021/12/21 12:49:22;;;;;;;27.95;18.20;;;;;;;;;;5030580;28;20041;-65
2021/12/21 12:51:48;;;;;;;27.50;18.20;;;;;;;;;;5033681;28;20037;-65
2021/12/21 12:54:16;;;;;;;26.98;18.95;;;;;;;;;;5031805;28;20387;-65
2021/12/21 12:56:42;;;;;;;29.55;17.23;;;;;;;;;;5032970;28;20576;-65
2021/12/21 12:59:08;;;;;;;28.75;18.55;;;;;;;;;;5032518;28;20129;-65
2021/12/21 13:01:41;;;;;;;28.83;16.55;;;;;;;;;;5033157;28;20384;-65
2021/12/21 13:04:10;;;;;;;23.40;17.10;;;;;;;;;;5033181;28;20487;-65
2021/12/21 13:06:37;;;;;;;28.90;17.10;;;;;;;;;;5033256;28;20041;-66
2021/12/21 13:09:05;;;;;;;25.98;16.90;;;;;;;;;;5032844;28;20030;-66
2021/12/21 13:11:32;;;;;;;23.35;16.42;;;;;;;;;;5033755;28;20041;-65
2021/12/21 13:13:58;;;;;;;24.08;16.48;;;;;;;;;;5033035;28;20033;-65
2021/12/21 13:16:28;;;;;;;28.77;17.77;;;;;;;;;;5032642;28;20121;-65
2021/12/21 13:18:58;;;;;;;29.80;17.65;;;;;;;;;;5032123;28;20041;-65
2021/12/21 13:21:34;;;;;;;26.55;17.00;;;;;;;;;;5033035;28;20037;-65
2021/12/21 13:24:00;;;;;;;27.63;16.80;;;;;;;;;;5031156;28;20088;-65
2021/12/21 13:26:32;;;;;;;29.85;17.30;;;;;;;;;;5032936;28;20142;-65
2021/12/21 13:28:59;;;;;;;25.98;16.73;;;;;;;;;;5033128;28;20077;-65
2021/12/21 13:31:26;;;;;;;27.08;17.23;;;;;;;;;;5032619;28;20491;-65
2021/12/21 13:33:53;;;;;;;23.55;15.70;;;;;;;;;;5032664;28;20172;-65
2021/12/21 13:36:19;;;;;;;24.83;16.58;;;;;;;;;;5032471;28;20441;-65
2021/12/21 13:38:45;;;;;;;31.20;16.73;;;;;;;;;;5032671;28;20384;-65
2021/12/21 13:41:16;;;;;;;29.45;17.52;;;;;;;;;;5031457;28;20060;-65
2021/12/21 13:43:52;;;;;;;25.63;16.85;;;;;;;;;;5032510;28;20041;-66
2021/12/21 13:46:18;;;;;;;29.67;17.00;;;;;;;;;;5030522;28;20045;-66
2021/12/21 13:48:50;;;;;;;32.92;18.98;;;;;;;;;;5032119;28;20044;-65
2021/12/21 13:51:17;;;;;;;31.55;17.88;;;;;;;;;;5031619;28;20514;-65
2021/12/21 13:53:45;;;;;;;32.90;18.23;;;;;;;;;;5032485;28;20040;-65
2021/12/21 13:56:13;;;;;;;28.85;18.00;;;;;;;;;;5031664;28;20124;-65
2021/12/21 13:58:39;;;;;;;26.52;17.13;;;;;;;;;;5032225;28;20042;-66
2021/12/21 14:01:05;;;;;;;30.65;17.85;;;;;;;;;;5031950;28;20522;-65
2021/12/21 14:03:34;;;;;;;46.88;18.20;;;;;;;;;;5032341;28;20049;-65
2021/12/21 14:06:09;;;;;;;32.47;19.15;;;;;;;;;;5031930;28;20071;-66
2021/12/21 14:08:36;;;;;;;26.83;17.95;;;;;;;;;;5032201;28;20106;-66
2021/12/21 14:11:04;;;;;;;34.13;18.88;;;;;;;;;;5032177;28;20502;-66
2021/12/21 14:13:31;;;;;;;65.03;20.58;;;;;;;;;;5031945;28;20049;-66
2021/12/21 14:15:58;;;;;;;42.20;18.25;;;;;;;;;;5031282;28;20048;-65
2021/12/21 14:18:31;;;;;;;25.58;17.52;;;;;;;;;;5032101;28;20127;-66
2021/12/21 14:21:08;;;;;;;31.27;18.83;;;;;;;;;;5032356;28;20037;-65
2021/12/21 14:23:35;;;;;;;32.83;17.73;;;;;;;;;;5031207;28;20425;-65
2021/12/21 14:26:09;;;;;;;26.00;14.07;;;;;;;;;;5030588;28;20033;-66
2021/12/21 14:29:04;;;;;;;32.53;18.42;;;;;;;;;;5029726;28;20034;-66
2021/12/21 14:32:25;;;;;;;26.42;17.17;;;;;;;;;;5016181;28;20037;-66
2021/12/21 14:34:25;;;;;;;28.88;17.52;;;;;;;;;;5018590;28;20398;-66
2021/12/21 14:36:51;;;;;;;30.77;17.77;;;;;;;;;;5028104;28;20045;-66
2021/12/21 14:39:19;;;;;;;29.70;17.67;;;;;;;;;;5029807;28;20065;-66
2021/12/21 14:41:47;;;;;;;30.50;18.05;;;;;;;;;;5029970;28;20040;-66
2021/12/21 14:44:13;;;;;;;27.13;17.85;;;;;;;;;;5030597;28;20044;-66
2021/12/21 14:46:51;;;;;;;27.88;17.42;;;;;;;;;;5028533;28;20057;-66
2021/12/21 14:49:22;;;;;;;29.75;18.83;;;;;;;;;;5030024;28;20033;-66
2021/12/21 14:51:50;;;;;;;;;;;;;;;;;;5031327;28;20041;-66
2021/12/21 14:54:23;;;;;;;29.70;17.73;;;;;;;;;;5029844;28;19921;-66
2021/12/21 14:56:49;;;;;;;29.60;17.42;;;;;;;;;;5029006;28;20065;-66
2021/12/21 14:59:15;;;;;;;23.70;16.55;;;;;;;;;;5030665;28;20079;-66
2021/12/21 15:01:53;;;;;;;26.55;16.80;;;;;;;;;;5030343;28;20742;-66
2021/12/21 15:04:23;;;;;;;32.13;18.52;;;;;;;;;;5029531;28;20087;-66
2021/12/21 15:06:50;;;;;;;24.85;16.48;;;;;;;;;;5029693;28;20501;-66
2021/12/21 15:09:16;;;;;;;27.10;17.05;;;;;;;;;;5032509;28;20042;-66
2021/12/21 15:11:46;;;;;;;27.23;16.67;;;;;;;;;;5035034;28;20087;-66
2021/12/21 15:14:12;;;;;;;24.33;15.77;;;;;;;;;;5034018;28;20037;-66
2021/12/21 15:16:38;;;;;;;28.20;16.08;;;;;;;;;;5034929;28;20056;-66
2021/12/21 15:19:04;;;;;;;28.25;16.95;;;;;;;;;;5034080;28;20509;-66
2021/12/21 15:21:30;;;;;;;28.00;17.08;;;;;;;;;;5033379;28;20041;-69
2021/12/21 15:24:00;;;;;;;30.70;16.63;;;;;;;;;;5029748;28;20034;-66